Time;durP1;ratioP1;P1;durP2;ratioP2;P2;SDS_P1;SDS_P2;PMS_P1;PMS_P2;Temp;Humidity;BMP_temperature;BMP_pressure;BME280_temperature;BME280_humidity;BME280_pressure;Samples;Min_cycle;Max_cycle;Signal;HPM_P1;HPM_P2
2022/05/05 00:02:21;;;;;;;0.00;0.00;;;13.30;1.00;307.10;52822.00;;;;5076029;28;20240;-72
2022/05/05 00:04:50;;;;;;;0.10;0.10;;;13.10;1.00;307.20;52812.00;;;;5072444;28;20619;-73
2022/05/05 00:07:18;;;;;;;0.00;0.00;;;13.20;1.00;307.00;52785.00;;;;5059724;28;20202;-72
2022/05/05 00:09:46;;;;;;;0.00;0.00;;;13.10;1.00;306.80;52798.00;;;;5067006;28;20205;-72
2022/05/05 00:14:59;;;;;;;0.05;0.05;;;13.00;1.00;306.70;52806.00;;;;5073570;28;20217;-72
2022/05/05 00:17:28;;;;;;;0.10;0.10;;;13.00;1.00;306.50;52821.00;;;;5080875;28;20189;-72
2022/05/05 00:19:58;;;;;;;0.03;0.03;;;12.90;1.00;306.70;52811.00;;;;5078287;28;20649;-72
2022/05/05 00:22:26;;;;;;;0.10;0.10;;;13.00;1.00;306.70;52806.00;;;;5083222;28;20197;-72
2022/05/05 00:24:54;;;;;;;0.10;0.10;;;13.00;1.00;306.90;52798.00;;;;5074272;28;20217;-72
2022/05/05 00:27:22;;;;;;;0.00;0.00;;;13.00;1.00;307.00;52790.00;;;;5070107;28;20628;-72
2022/05/05 00:29:51;;;;;;;0.10;0.10;;;13.10;1.00;306.80;52800.00;;;;5073697;28;20291;-72
2022/05/05 00:32:19;;;;;;;0.10;0.10;;;13.00;1.00;306.50;52820.00;;;;5080680;28;20233;-72
2022/05/05 00:34:47;;;;;;;0.00;0.00;;;12.80;1.00;306.50;52830.00;;;;5071546;28;20217;-72
2022/05/05 00:37:17;;;;;;;0.10;0.10;;;12.80;1.00;306.40;52836.00;;;;5070144;28;20217;-72
2022/05/05 00:39:45;;;;;;;0.10;0.10;;;12.70;1.00;306.40;52833.00;;;;5065659;28;20194;-72
2022/05/05 00:42:15;;;;;;;0.10;0.10;;;12.70;1.00;306.30;52836.00;;;;5070148;28;20665;-71
2022/05/05 00:44:44;;;;;;;0.10;0.10;;;12.70;1.00;306.30;52836.00;;;;5090103;28;20205;-72
2022/05/05 00:47:16;;;;;;;0.10;0.10;;;12.70;1.00;306.40;52826.00;;;;5084329;28;20209;-72
2022/05/05 00:49:49;;;;;;;0.03;0.03;;;12.80;1.00;306.40;52829.00;;;;5066069;28;20243;-72
2022/05/05 00:52:19;;;;;;;0.10;0.10;;;12.80;1.00;306.40;52823.00;;;;5070549;28;20574;-72
2022/05/05 00:54:47;;;;;;;0.10;0.10;;;12.90;1.00;306.50;52816.00;;;;5074615;28;20213;-72
2022/05/05 00:57:15;;;;;;;0.10;0.10;;;12.90;1.00;306.40;52827.00;;;;5080612;28;20689;-71
2022/05/05 00:59:44;;;;;;;0.10;0.10;;;12.80;1.00;306.40;52822.00;;;;5082700;28;20198;-72
2022/05/05 01:02:13;;;;;;;0.08;0.08;;;12.90;1.00;306.40;52826.00;;;;5077635;28;20185;-72
2022/05/05 01:04:42;;;;;;;0.10;0.10;;;12.80;1.00;306.40;52831.00;;;;5072932;28;20301;-72
2022/05/05 01:07:10;;;;;;;0.10;0.10;;;12.80;1.00;306.30;52835.00;;;;5074889;28;20611;-72
2022/05/05 01:09:40;;;;;;;0.10;0.10;;;12.70;1.00;306.30;52844.00;;;;5074832;28;20201;-72
2022/05/05 01:12:10;;;;;;;0.10;0.10;;;12.70;1.00;306.10;52852.00;;;;5070779;28;20198;-72
2022/05/05 01:14:38;;;;;;;0.00;0.00;;;12.60;1.00;306.20;52845.00;;;;5085871;28;20270;-72
2022/05/05 01:17:07;;;;;;;0.00;0.00;;;12.60;1.00;306.10;52856.00;;;;5081673;28;20197;-72
2022/05/05 01:19:36;;;;;;;0.10;0.10;;;12.60;1.00;306.00;52869.00;;;;5069626;28;20276;-73
2022/05/05 01:22:06;;;;;;;0.10;0.10;;;12.50;1.00;305.80;52882.00;;;;5069705;28;20212;-72
2022/05/05 01:30:21;;;;;;;0.08;0.08;;;12.50;1.00;305.90;52876.00;;;;5033168;28;20251;-72
2022/05/05 01:32:49;;;;;;;0.10;0.10;;;12.50;1.00;305.90;52878.00;;;;5034887;28;20202;-72
2022/05/05 01:35:17;;;;;;;0.10;0.10;;;12.50;1.00;306.10;52869.00;;;;5043519;28;20241;-72
2022/05/05 01:37:47;;;;;;;0.00;0.00;;;12.60;1.00;306.20;52859.00;;;;5074530;28;20200;-72
2022/05/05 01:40:15;;;;;;;0.10;0.10;;;12.60;1.00;306.20;52850.00;;;;5073165;28;20537;-72
2022/05/05 01:42:44;;;;;;;0.10;0.10;;;12.70;1.00;306.30;52848.00;;;;5085181;28;20194;-73
2022/05/05 01:45:12;;;;;;;0.10;0.10;;;12.70;1.00;306.20;52853.00;;;;5057825;28;20210;-73
2022/05/05 01:47:40;;;;;;;0.10;0.10;;;12.70;1.00;306.00;52879.00;;;;5054496;28;20193;-74
2022/05/05 01:50:09;;;;;;;0.10;0.10;;;12.50;1.00;306.00;52875.00;;;;5068518;28;20190;-74
2022/05/05 01:52:37;;;;;;;0.00;0.00;;;12.50;1.00;305.80;52883.00;;;;5075132;28;20763;-74
2022/05/05 01:55:08;;;;;;;0.10;0.10;;;12.40;1.00;305.90;52881.00;;;;5093238;28;20220;-74
2022/05/05 01:57:36;;;;;;;0.10;0.10;;;12.40;1.00;305.90;52881.00;;;;5089778;28;20232;-74
2022/05/05 02:00:05;;;;;;;0.10;0.10;;;12.50;1.00;306.00;52870.00;;;;5064512;28;20194;-74
2022/05/05 02:02:42;;;;;;;0.10;0.10;;;12.50;1.00;306.20;52854.00;;;;5074867;28;20201;-74
2022/05/05 02:05:11;;;;;;;0.10;0.10;;;12.60;1.00;306.20;52854.00;;;;5068213;28;20222;-74
2022/05/05 02:07:41;;;;;;;0.00;0.00;;;12.60;1.00;306.20;52861.00;;;;5074006;28;20198;-74
2022/05/05 02:10:15;;;;;;;0.08;0.08;;;12.60;1.00;306.30;52851.00;;;;5074259;28;20201;-74
2022/05/05 02:12:45;;;;;;;0.10;0.10;;;12.70;1.00;306.40;52841.00;;;;5084268;28;20196;-74
2022/05/05 02:15:15;;;;;;;0.10;0.10;;;12.70;1.00;306.40;52843.00;;;;5074581;28;20214;-74
2022/05/05 02:17:45;;;;;;;0.00;0.00;;;12.80;1.00;306.30;52856.00;;;;5073599;28;20642;-74
2022/05/05 02:20:13;;;;;;;0.10;0.10;;;12.60;1.00;306.20;52855.00;;;;5071259;28;20222;-74
2022/05/05 02:22:42;;;;;;;0.10;0.10;;;12.60;1.00;306.10;52864.00;;;;5078020;28;20230;-74
2022/05/05 02:25:11;;;;;;;0.00;0.00;;;12.50;1.00;305.90;52881.00;;;;5079330;28;20586;-74
2022/05/05 02:27:51;;;;;;;0.05;0.05;;;12.40;1.00;305.70;52896.00;;;;5073303;28;20201;-73
2022/05/05 02:30:21;;;;;;;0.10;0.10;;;12.30;1.00;305.50;52912.00;;;;5071797;28;20201;-73
2022/05/05 02:32:50;;;;;;;0.03;0.03;;;12.20;1.00;305.50;52916.00;;;;5068199;28;20667;-73
2022/05/05 02:35:19;;;;;;;0.10;0.10;;;12.20;1.00;305.50;52919.00;;;;5073434;28;20217;-73
2022/05/05 02:40:35;;;;;;;0.10;0.10;;;12.20;1.00;305.50;52911.00;;;;5072478;28;20205;-73
2022/05/05 02:43:03;;;;;;;0.00;0.00;;;12.20;1.00;305.60;52901.00;;;;5057042;28;20204;-73
2022/05/05 02:45:31;;;;;;;0.10;0.10;;;12.30;1.00;305.60;52902.00;;;;5054469;28;20225;-73
2022/05/05 02:48:00;;;;;;;0.10;0.10;;;12.30;1.00;305.60;52902.00;;;;5053067;28;20190;-73
2022/05/05 02:50:28;;;;;;;0.10;0.10;;;12.30;1.00;305.80;52882.00;;;;5054536;28;20274;-73
2022/05/05 02:52:56;;;;;;;0.10;0.10;;;12.50;1.00;306.00;52872.00;;;;5090570;28;20217;-72
2022/05/05 02:55:24;;;;;;;0.10;0.10;;;12.60;1.00;305.90;52878.00;;;;5057083;28;20264;-73
2022/05/05 02:57:53;;;;;;;0.05;0.05;;;12.50;1.00;305.70;52892.00;;;;5085385;28;20204;-73
2022/05/05 03:00:21;;;;;;;0.10;0.10;;;12.40;1.00;305.50;52903.00;;;;5074044;28;20568;-73
2022/05/05 03:02:50;;;;;;;0.10;0.10;;;12.30;1.00;305.40;52913.00;;;;5077007;28;20225;-73
2022/05/05 03:05:18;;;;;;;0.10;0.10;;;12.30;1.00;305.40;52914.00;;;;5070777;28;20218;-73
2022/05/05 03:07:48;;;;;;;0.10;0.10;;;12.30;1.00;305.60;52899.00;;;;5075296;28;20202;-73
2022/05/05 03:10:16;;;;;;;0.00;0.00;;;12.40;1.00;305.50;52915.00;;;;5072967;28;20193;-73
2022/05/05 03:12:43;;;;;;;0.10;0.10;;;12.30;1.00;305.40;52919.00;;;;5087698;28;20196;-72
2022/05/05 03:15:13;;;;;;;0.10;0.10;;;12.20;1.00;305.40;52907.00;;;;5073821;28;20267;-73
2022/05/05 03:17:41;;;;;;;0.00;0.00;;;12.20;1.00;305.50;52900.00;;;;5071694;28;20205;-73
2022/05/05 03:20:10;;;;;;;0.00;0.00;;;12.30;1.00;305.50;52900.00;;;;5059555;28;20257;-73
2022/05/05 03:22:38;;;;;;;0.10;0.10;;;12.30;1.00;305.50;52897.00;;;;5067895;28;20214;-73
2022/05/05 03:25:07;;;;;;;0.10;0.10;;;12.30;1.00;305.50;52909.00;;;;5088959;28;20209;-73
2022/05/05 03:27:37;;;;;;;0.10;0.10;;;12.20;1.00;305.50;52900.00;;;;5091998;28;20193;-73
2022/05/05 03:30:07;;;;;;;0.10;0.10;;;12.30;1.00;305.60;52895.00;;;;5072626;28;20567;-74
2022/05/05 03:32:36;;;;;;;0.10;0.10;;;12.30;1.00;305.60;52893.00;;;;5060001;28;20600;-74
2022/05/05 03:35:06;;;;;;;0.05;0.05;;;12.30;1.00;305.60;52895.00;;;;5071700;28;20213;-74
2022/05/05 03:37:34;;;;;;;0.10;0.10;;;12.30;1.00;305.50;52901.00;;;;5065426;28;20256;-73
2022/05/05 03:40:03;;;;;;;0.00;0.00;;;12.30;1.00;305.50;52902.00;;;;5052781;28;20562;-73
2022/05/05 03:42:30;;;;;;;0.10;0.10;;;12.20;1.00;305.50;52904.00;;;;5068497;28;20225;-73
2022/05/05 03:44:58;;;;;;;0.10;0.10;;;12.30;1.00;305.50;52909.00;;;;5072042;28;20237;-73
2022/05/05 03:47:26;;;;;;;0.03;0.03;;;12.30;1.00;305.50;52907.00;;;;5061865;28;20194;-73
2022/05/05 03:49:56;;;;;;;0.10;0.10;;;12.30;1.00;305.60;52907.00;;;;5052417;28;20194;-74
2022/05/05 03:52:24;;;;;;;0.10;0.10;;;12.40;1.00;305.60;52905.00;;;;5086345;28;20283;-74
2022/05/05 03:54:52;;;;;;;0.10;0.10;;;12.50;1.00;305.60;52910.00;;;;5070895;28;20702;-74
2022/05/05 03:57:20;;;;;;;0.10;0.10;;;12.40;1.00;305.40;52925.00;;;;5079540;28;20666;-74
2022/05/05 03:59:48;;;;;;;0.00;0.00;;;12.30;1.00;305.10;52946.00;;;;5075236;28;20194;-74
2022/05/05 04:02:16;;;;;;;0.10;0.10;;;12.10;1.00;305.10;52950.00;;;;5071765;28;20286;-73
2022/05/05 04:04:44;;;;;;;0.10;0.10;;;12.10;1.00;305.20;52944.00;;;;5071677;28;20695;-74
2022/05/05 04:07:13;;;;;;;0.10;0.10;;;12.20;1.00;305.10;52957.00;;;;5070186;28;20200;-74
2022/05/05 04:09:41;;;;;;;0.10;0.10;;;12.10;1.00;305.10;52959.00;;;;5072263;28;20189;-73
2022/05/05 04:12:11;;;;;;;0.10;0.10;;;12.10;1.00;305.10;52969.00;;;;5072043;28;20198;-72
2022/05/05 04:14:39;;;;;;;0.10;0.10;;;12.10;1.00;305.10;52966.00;;;;5086160;28;20714;-73
2022/05/05 04:17:07;;;;;;;0.00;0.00;;;12.10;1.00;304.90;52982.00;;;;5068481;28;20194;-73
2022/05/05 04:19:36;;;;;;;0.00;0.00;;;12.00;1.00;304.80;52993.00;;;;5066782;28;20193;-72
2022/05/05 04:22:05;;;;;;;0.10;0.10;;;11.90;1.00;304.80;52993.00;;;;5056155;28;20217;-72
2022/05/05 04:24:34;;;;;;;0.10;0.10;;;11.80;1.00;304.70;53003.00;;;;5064112;28;20242;-72
2022/05/05 04:27:03;;;;;;;0.10;0.10;;;11.70;1.00;304.60;53018.00;;;;5063469;28;20470;-72
2022/05/05 04:29:31;;;;;;;0.05;0.05;;;11.70;1.00;304.60;53018.00;;;;5084656;28;20751;-72
2022/05/05 04:32:01;;;;;;;0.00;0.00;;;11.70;1.00;304.60;53019.00;;;;5091663;28;20662;-71
2022/05/05 04:34:29;;;;;;;0.10;0.10;;;11.70;1.00;304.60;53015.00;;;;5072012;28;20217;-70
2022/05/05 04:36:58;;;;;;;0.10;0.10;;;11.70;1.00;304.70;53013.00;;;;5062420;28;20652;-71
2022/05/05 04:39:25;;;;;;;0.10;0.10;;;11.80;1.00;304.80;53001.00;;;;5064416;28;20197;-71
2022/05/05 04:41:55;;;;;;;0.10;0.10;;;11.90;1.00;305.00;52987.00;;;;5071937;28;20243;-72
2022/05/05 04:44:23;;;;;;;0.05;0.05;;;12.00;1.00;305.20;52967.00;;;;5072384;28;20229;-72
2022/05/05 04:46:51;;;;;;;0.10;0.10;;;12.10;1.00;305.50;52945.00;;;;5071149;28;20281;-71
2022/05/05 04:49:19;;;;;;;0.10;0.10;;;12.20;1.00;305.70;52932.00;;;;5072288;28;20243;-72
2022/05/05 04:51:47;;;;;;;0.10;0.10;;;12.30;1.00;305.70;52927.00;;;;5068725;28;20621;-72
2022/05/05 04:54:15;;;;;;;0.10;0.10;;;12.30;1.00;305.80;52926.00;;;;5068282;28;20205;-71
2022/05/05 04:56:43;;;;;;;0.10;0.10;;;12.40;1.00;305.90;52920.00;;;;5063342;28;20247;-70
2022/05/05 04:59:12;;;;;;;0.03;0.03;;;12.40;1.00;306.00;52906.00;;;;5070215;28;20185;-71
2022/05/05 05:01:40;;;;;;;0.10;0.10;;;12.50;1.00;306.10;52904.00;;;;5066978;28;20198;-70
2022/05/05 05:04:09;;;;;;;0.10;0.10;;;12.50;1.00;306.30;52890.00;;;;5070867;28;20229;-73
2022/05/05 05:06:36;;;;;;;0.10;0.10;;;12.60;1.00;306.40;52880.00;;;;5065740;28;20194;-73
2022/05/05 05:09:04;;;;;;;0.00;0.00;;;12.70;1.00;306.40;52875.00;;;;5074880;28;20197;-73
2022/05/05 05:11:32;;;;;;;0.10;0.10;;;12.70;1.00;306.60;52866.00;;;;5075309;28;20201;-71
2022/05/05 05:14:00;;;;;;;0.00;0.00;;;12.80;1.00;306.70;52862.00;;;;5075760;28;20224;-71
2022/05/05 05:16:30;;;;;;;0.10;0.10;;;12.80;1.00;306.80;52855.00;;;;5071063;28;20190;-72
2022/05/05 05:19:09;;;;;;;0.10;0.10;;;12.80;1.00;306.90;52848.00;;;;5062343;28;20276;-71
2022/05/05 05:21:41;;;;;;;0.10;0.10;;;12.90;1.00;306.90;52847.00;;;;5074810;28;20236;-71
2022/05/05 05:24:09;;;;;;;0.10;0.10;;;12.90;1.00;307.00;52840.00;;;;5084389;28;20213;-72
2022/05/05 05:26:36;;;;;;;0.10;0.10;;;13.00;1.00;307.00;52842.00;;;;5070850;28;20232;-72
2022/05/05 05:29:04;;;;;;;0.10;0.10;;;13.00;1.00;307.10;52836.00;;;;5087806;28;20273;-73
2022/05/05 05:31:34;;;;;;;0.10;0.10;;;13.00;1.00;307.20;52832.00;;;;5055926;28;20202;-72
2022/05/05 05:34:02;;;;;;;0.10;0.10;;;13.00;1.00;307.20;52828.00;;;;5074326;28;20202;-72
2022/05/05 05:36:30;;;;;;;0.10;0.10;;;13.00;1.00;307.30;52828.00;;;;5075883;28;20193;-72
2022/05/05 05:38:58;;;;;;;0.00;0.00;;;13.10;1.00;307.20;52838.00;;;;5086975;28;20189;-73
2022/05/05 05:41:26;;;;;;;0.00;0.00;;;13.10;1.00;307.20;52826.00;;;;5089249;28;20281;-73
2022/05/05 05:43:54;;;;;;;0.10;0.10;;;13.10;1.00;307.20;52835.00;;;;5077794;28;20232;-73
2022/05/05 05:46:22;;;;;;;0.10;0.10;;;13.10;1.00;307.10;52846.00;;;;5087240;28;20194;-72
2022/05/05 05:48:52;;;;;;;0.08;0.08;;;13.00;1.00;307.10;52835.00;;;;5077372;28;20225;-73
2022/05/05 05:51:20;;;;;;;0.10;0.10;;;13.00;1.00;307.20;52835.00;;;;5073575;28;20678;-73
2022/05/05 05:53:48;;;;;;;0.10;0.10;;;13.10;1.00;307.10;52845.00;;;;5074867;28;20627;-74
2022/05/05 05:56:16;;;;;;;0.10;0.10;;;13.00;1.00;307.30;52831.00;;;;5073748;28;20217;-73
2022/05/05 05:58:44;;;;;;;0.08;0.08;;;13.10;1.00;307.60;52806.00;;;;5077497;28;20228;-73
2022/05/05 06:01:12;;;;;;;0.10;0.10;;;13.20;1.00;307.70;52800.00;;;;5076824;28;20208;-73
2022/05/05 06:03:54;;;;;;;0.00;0.00;;;13.30;1.00;307.70;52797.00;;;;5075744;28;20702;-73
2022/05/05 06:06:24;;;;;;;0.10;0.10;;;13.30;1.00;307.70;52805.00;;;;5072708;28;20182;-73
2022/05/05 06:08:52;;;;;;;0.00;0.00;;;13.30;1.00;307.70;52802.00;;;;5074537;28;20193;-71
2022/05/05 06:11:22;;;;;;;0.00;0.00;;;13.30;1.00;307.70;52806.00;;;;5065252;28;20689;-72
2022/05/05 06:13:50;;;;;;;0.00;0.00;;;13.30;1.00;307.90;52786.00;;;;5074016;28;20199;-72
2022/05/05 06:16:20;;;;;;;0.00;0.00;;;13.40;1.00;308.10;52775.00;;;;5072514;28;20194;-73
2022/05/05 06:18:49;;;;;;;0.10;0.10;;;13.50;1.00;308.30;52759.00;;;;5073988;28;20231;-71
2022/05/05 06:21:17;;;;;;;0.10;0.10;;;13.60;1.00;308.20;52769.00;;;;5073931;28;20251;-72
2022/05/05 06:23:51;;;;;;;0.10;0.10;;;13.60;1.00;308.30;52764.00;;;;5074200;28;20271;-73
2022/05/05 06:26:19;;;;;;;0.10;0.10;;;13.70;1.00;308.40;52759.00;;;;5071654;28;20197;-72
2022/05/05 06:28:48;;;;;;;0.00;0.00;;;13.70;1.00;308.50;52755.00;;;;5073412;28;20189;-71
2022/05/05 06:31:16;;;;;;;0.00;0.00;;;13.70;1.00;308.80;52725.00;;;;5064884;28;20202;-72
2022/05/05 06:33:44;;;;;;;0.10;0.10;;;13.90;1.00;309.00;52707.00;;;;5058705;28;20528;-71
2022/05/05 06:36:12;;;;;;;0.10;0.10;;;13.90;1.00;309.10;52700.00;;;;5064697;28;20222;-73
2022/05/05 06:38:40;;;;;;;0.00;0.00;;;14.00;1.00;309.70;52654.00;;;;5073199;28;20239;-72
2022/05/05 06:41:15;;;;;;;0.00;0.00;;;14.20;1.00;309.90;52639.00;;;;5073850;28;20186;-72
2022/05/05 06:43:43;;;;;;;0.00;0.00;;;14.30;1.00;309.90;52641.00;;;;5073731;28;20677;-72
2022/05/05 06:46:11;;;;;;;0.10;0.10;;;14.40;1.00;310.10;52625.00;;;;5072691;28;20217;-72
2022/05/05 06:48:45;;;;;;;0.03;0.03;;;14.50;1.00;310.30;52610.00;;;;5073243;28;20279;-72
2022/05/05 06:51:13;;;;;;;0.00;0.00;;;14.60;1.00;310.30;52602.00;;;;5073708;28;20281;-72
2022/05/05 06:53:42;;;;;;;0.00;0.00;;;14.60;1.00;310.40;52591.00;;;;5069807;28;20204;-71
2022/05/05 06:56:10;;;;;;;0.10;0.10;;;14.70;1.00;310.50;52584.00;;;;5072507;28;20209;-71
2022/05/05 06:58:39;;;;;;;0.10;0.10;;;14.70;1.00;310.50;52590.00;;;;5073118;28;20674;-71
2022/05/05 07:05:23;;;;;;;0.10;0.10;;;14.70;1.00;310.00;52628.00;;;;5073097;28;20318;-73
2022/05/05 07:06:40;;;;;;;0.10;0.10;;;14.50;1.00;310.10;52630.00;;;;5063888;28;20251;-72
2022/05/05 07:11:54;;;;;;;0.10;0.10;;;14.60;1.00;310.30;52610.00;;;;5072549;28;20211;-72
2022/05/05 07:14:23;;;;;;;0.00;0.00;;;14.60;1.00;310.20;52622.00;;;;5072647;28;20217;-72
2022/05/05 07:16:52;;;;;;;0.00;0.00;;;14.60;1.00;310.10;52626.00;;;;5071833;28;20193;-72
2022/05/05 07:19:19;;;;;;;0.05;0.05;;;14.60;1.00;310.20;52624.00;;;;5061337;28;20714;-72
2022/05/05 07:21:47;;;;;;;0.08;0.08;;;14.60;1.00;310.30;52619.00;;;;5084832;28;20774;-71
2022/05/05 07:24:15;;;;;;;0.10;0.10;;;14.70;1.00;310.40;52614.00;;;;5072237;28;20225;-71
2022/05/05 07:26:43;;;;;;;0.00;0.00;;;14.70;1.00;310.30;52621.00;;;;5072409;28;20209;-71
2022/05/05 07:29:11;;;;;;;0.00;0.00;;;14.70;1.00;310.30;52623.00;;;;5071823;28;20205;-71
2022/05/05 07:31:42;;;;;;;0.10;0.10;;;14.70;1.00;310.20;52629.00;;;;5069288;28;20209;-71
2022/05/05 07:34:10;;;;;;;0.00;0.00;;;14.70;1.00;310.20;52624.00;;;;5066659;28;20252;-71
2022/05/05 07:36:38;;;;;;;0.10;0.10;;;14.70;1.00;310.40;52616.00;;;;5065895;28;20198;-73
2022/05/05 07:39:06;;;;;;;0.00;0.00;;;14.70;1.00;310.70;52600.00;;;;5071738;28;20239;-71
2022/05/05 07:41:35;;;;;;;0.00;0.00;;;14.80;1.00;310.60;52606.00;;;;5073918;28;20276;-71
2022/05/05 07:44:05;;;;;;;0.10;0.10;;;14.80;1.00;310.70;52602.00;;;;5072954;28;20579;-72
2022/05/05 07:46:33;;;;;;;0.00;0.00;;;14.80;1.00;310.70;52599.00;;;;5072609;28;20189;-71
2022/05/05 07:49:06;;;;;;;0.10;0.10;;;14.80;1.00;310.50;52605.00;;;;5073016;28;20244;-72
2022/05/05 07:51:35;;;;;;;0.10;0.10;;;14.80;1.00;310.60;52604.00;;;;5069756;28;20198;-71
2022/05/05 07:56:57;;;;;;;0.10;0.10;;;14.90;1.00;310.90;52588.00;;;;5057506;28;20194;-70
2022/05/05 07:59:24;;;;;;;0.00;0.00;;;14.90;99.90;310.80;52600.00;;;;5073262;28;20201;-70
2022/05/05 08:01:53;;;;;;;0.10;0.10;;;14.90;99.90;310.90;52589.00;;;;5071285;28;20190;-70
2022/05/05 08:04:22;;;;;;;0.10;0.10;;;14.90;1.00;311.00;52583.00;;;;5073361;28;20295;-70
2022/05/05 08:06:51;;;;;;;0.00;0.00;;;15.00;99.90;311.00;52579.00;;;;5073169;28;20194;-70
2022/05/05 08:09:20;;;;;;;0.10;0.10;;;15.00;99.90;311.20;52567.00;;;;5072120;28;20201;-73
2022/05/05 08:12:01;;;;;;;0.10;0.10;;;15.00;99.90;310.90;52591.00;;;;5073003;28;20185;-71
2022/05/05 08:14:30;;;;;;;0.00;0.00;;;15.00;99.90;310.90;52594.00;;;;5071659;28;20759;-71
2022/05/05 08:16:59;;;;;;;0.00;0.00;;;15.00;99.90;310.90;52592.00;;;;5071304;28;20204;-71
2022/05/05 08:19:28;;;;;;;0.10;0.10;;;15.00;99.90;310.80;52602.00;;;;5071517;28;20208;-71
2022/05/05 08:21:56;;;;;;;0.10;0.10;;;14.90;99.90;310.80;52594.00;;;;5071597;28;20194;-72
2022/05/05 08:29:56;;;;;;;0.10;0.10;;;15.00;1.00;311.30;52567.00;;;;5071305;28;20186;-71
2022/05/05 08:32:24;;;;;;;0.10;0.10;;;15.10;1.00;311.50;52546.00;;;;5080854;28;20199;-72
2022/05/05 08:34:53;;;;;;;0.10;0.10;;;15.20;99.90;311.80;52525.00;;;;5071501;28;20229;-71
2022/05/05 08:37:22;;;;;;;0.10;0.10;;;15.40;99.90;311.90;52519.00;;;;5062957;28;20251;-71
2022/05/05 08:39:50;;;;;;;0.00;0.00;;;15.40;99.90;312.10;52516.00;;;;5071050;28;20259;-71
2022/05/05 08:42:19;;;;;;;0.00;0.00;;;15.50;99.90;312.10;52504.00;;;;5072288;28;20616;-72
2022/05/05 08:44:46;;;;;;;0.00;0.00;;;15.60;99.90;312.20;52500.00;;;;5071423;28;20225;-73
2022/05/05 08:47:17;;;;;;;0.03;0.03;;;15.60;99.90;312.00;52515.00;;;;5069392;28;20202;-73
2022/05/05 08:49:45;;;;;;;0.00;0.00;;;15.60;99.90;312.20;52504.00;;;;5071380;28;20225;-72
2022/05/05 08:52:22;;;;;;;0.00;0.00;;;15.70;99.90;312.50;52489.00;;;;5071059;28;20196;-72
2022/05/05 08:54:51;;;;;;;0.00;0.00;;;15.70;99.90;312.50;52480.00;;;;5068381;28;20217;-71
2022/05/05 08:57:19;;;;;;;0.00;0.00;;;15.80;1.00;312.40;52488.00;;;;5078606;28;20545;-71
2022/05/05 08:59:47;;;;;;;0.00;0.00;;;15.80;1.00;312.10;52505.00;;;;5076737;28;20205;-72
2022/05/05 09:02:16;;;;;;;0.00;0.00;;;15.70;7.90;312.30;52496.00;;;;5074969;28;20255;-71
2022/05/05 09:04:45;;;;;;;0.00;0.00;;;15.70;63.90;312.30;52494.00;;;;5072250;28;20229;-72
2022/05/05 09:07:17;;;;;;;0.00;0.00;;;15.70;8.80;312.10;52507.00;;;;5059656;28;20191;-71
2022/05/05 09:09:50;;;;;;;0.00;0.00;;;15.70;1.00;312.10;52511.00;;;;5062460;28;20756;-73
2022/05/05 09:12:23;;;;;;;0.00;0.00;;;15.60;48.80;312.30;52500.00;;;;5068000;28;20224;-71
2022/05/05 09:14:53;;;;;;;0.08;0.08;;;15.70;93.00;312.20;52504.00;;;;5068417;28;20308;-71
2022/05/05 09:17:26;;;;;;;0.10;0.10;;;15.70;99.90;312.30;52508.00;;;;5071243;28;20273;-72
2022/05/05 09:19:56;;;;;;;0.10;0.10;;;15.70;36.20;312.20;52514.00;;;;5071466;28;20577;-71
2022/05/05 09:22:28;;;;;;;0.00;0.00;;;15.70;47.10;312.20;52510.00;;;;5070964;28;20190;-70
2022/05/05 09:25:01;;;;;;;0.00;0.00;;;15.60;98.30;312.20;52509.00;;;;5071327;28;20226;-71
2022/05/05 09:27:31;;;;;;;0.10;0.10;;;15.70;77.50;312.00;52535.00;;;;5070694;28;20561;-71
2022/05/05 09:30:05;;;;;;;0.00;0.00;;;15.60;38.00;312.00;52527.00;;;;5070774;28;20589;-71
2022/05/05 09:32:36;;;;;;;0.00;0.00;;;15.60;95.60;312.10;52520.00;;;;5076133;28;20220;-71
2022/05/05 09:35:09;;;;;;;0.00;0.00;;;15.60;99.90;312.10;52527.00;;;;5068699;28;20232;-73
2022/05/05 09:37:43;;;;;;;0.00;0.00;;;15.60;96.50;312.10;52534.00;;;;5063830;28;20228;-71
2022/05/05 09:40:17;;;;;;;0.00;0.00;;;15.60;99.90;312.20;52519.00;;;;5071042;28;20251;-71
2022/05/05 09:42:47;;;;;;;0.00;0.00;;;15.60;99.90;312.40;52513.00;;;;5057602;28;20221;-70
2022/05/05 09:45:19;;;;;;;0.00;0.00;;;15.70;99.10;312.50;52503.00;;;;5070622;28;20213;-72
2022/05/05 09:47:50;;;;;;;0.00;0.00;;;15.80;1.00;312.40;52515.00;;;;5070505;28;20297;-71
2022/05/05 09:50:22;;;;;;;0.00;0.00;;;15.80;1.00;312.40;52518.00;;;;5071466;28;20292;-72
2022/05/05 09:58:26;;;;;;;0.00;0.00;;;15.80;1.00;312.50;52514.00;;;;5075219;28;20250;-72
2022/05/05 10:01:05;;;;;;;0.10;0.10;;;15.80;4.80;312.60;52503.00;;;;5074552;28;20221;-70
2022/05/05 10:06:34;;;;;;;0.00;0.00;;;15.90;1.00;312.90;52468.00;;;;5074318;28;20434;-71
2022/05/05 10:09:06;;;;;;;0.00;0.00;;;16.00;1.00;313.10;52458.00;;;;5074721;28;20193;-71
2022/05/05 10:11:36;;;;;;;0.00;0.00;;;16.10;1.00;313.20;52447.00;;;;5074569;28;20193;-71
2022/05/05 10:14:07;;;;;;;0.03;0.03;;;16.10;1.00;313.30;52444.00;;;;5072827;28;20202;-71
2022/05/05 10:16:39;;;;;;;0.00;0.00;;;16.20;1.00;313.30;52438.00;;;;5074244;28;20284;-71
2022/05/05 10:19:08;;;;;;;0.00;0.00;;;16.20;1.00;313.40;52438.00;;;;5074133;28;20272;-72
2022/05/05 10:21:52;;;;;;;0.03;0.03;;;16.20;1.00;313.40;52431.00;;;;5073898;28;20569;-71
2022/05/05 10:24:27;;;;;;;0.00;0.00;;;16.30;1.00;313.40;52437.00;;;;5059158;28;20217;-70
2022/05/05 10:26:58;;;;;;;0.10;0.10;;;16.30;1.00;312.90;52475.00;;;;5088612;28;20220;-71
2022/05/05 10:29:40;;;;;;;0.00;0.00;;;16.10;1.00;313.00;52470.00;;;;5076484;28;20212;-71
2022/05/05 10:32:11;;;;;;;0.00;0.00;;;16.10;1.00;313.40;52430.00;;;;5087590;28;20727;-71
2022/05/05 10:34:41;;;;;;;0.00;0.00;;;16.30;99.90;313.30;52441.00;;;;5081461;28;20240;-71
2022/05/05 10:37:13;;;;;;;0.00;0.00;;;16.30;99.90;313.50;52419.00;;;;5067009;28;20193;-71
2022/05/05 10:39:47;;;;;;;0.00;0.00;;;16.30;99.90;313.70;52410.00;;;;5073873;28;20234;-71
2022/05/05 10:42:23;;;;;;;0.00;0.00;;;16.40;99.90;313.90;52398.00;;;;5073542;28;20212;-70
2022/05/05 10:45:16;;;;;;;0.00;0.00;;;16.50;99.90;314.10;52373.00;;;;5073708;28;20221;-71
2022/05/05 10:48:30;;;;;;;0.00;0.00;;;16.50;99.90;314.20;52358.00;;;;5073039;28;20198;-71
2022/05/05 10:51:06;;;;;;;0.00;0.00;;;16.60;58.20;314.40;52350.00;;;;5072095;28;20198;-71
2022/05/05 10:53:40;;;;;;;0.00;0.00;;;16.70;50.70;314.10;52367.00;;;;5072985;28;20202;-72
2022/05/05 10:56:31;;;;;;;0.10;0.10;;;16.70;1.00;314.00;52383.00;;;;5072475;28;20218;-72
2022/05/05 10:59:08;;;;;;;0.10;0.10;;;16.60;64.80;314.10;52371.00;;;;5064099;28;20221;-71
2022/05/05 11:02:00;;;;;;;0.00;0.00;;;16.70;99.90;314.20;52368.00;;;;5072645;28;20198;-70
2022/05/05 11:04:30;;;;;;;0.00;0.00;;;16.70;99.90;314.00;52375.00;;;;5072434;28;20217;-71
2022/05/05 11:07:38;;;;;;;0.00;0.00;;;16.70;98.90;314.30;52365.00;;;;5064436;28;20260;-72
2022/05/05 11:10:28;;;;;;;0.00;0.00;;;16.70;96.10;314.30;52135.00;;;;5055799;28;20210;-71
2022/05/05 11:12:57;;;;;;;0.00;0.00;;;16.80;1.00;314.90;52123.00;;;;5073714;28;20247;-71
2022/05/05 11:21:32;;;;;;;0.00;0.00;;;17.00;1.00;315.00;52107.00;;;;5071050;28;20205;-71
2022/05/05 11:24:02;;;;;;;0.00;0.00;;;17.00;1.00;315.30;52083.00;;;;5073028;28;20202;-71
2022/05/05 11:26:31;;;;;;;0.00;0.00;;;17.10;99.90;315.60;52063.00;;;;5082896;28;20216;-71
2022/05/05 11:29:02;;;;;;;0.00;0.00;;;17.30;99.90;315.80;52047.00;;;;5073227;28;20189;-71
2022/05/05 11:31:31;;;;;;;0.10;0.10;;;17.40;1.00;315.50;52071.00;;;;5081057;28;20667;-71
2022/05/05 11:34:03;;;;;;;0.10;0.10;;;17.40;99.90;314.80;52120.00;;;;5075355;28;20208;-75
2022/05/05 11:36:34;;;;;;;0.00;0.00;;;17.10;1.00;315.20;52090.00;;;;5072386;28;20206;-72
2022/05/05 11:39:03;;;;;;;0.00;0.00;;;17.20;1.00;315.50;52064.00;;;;5072917;28;20209;-72
2022/05/05 11:41:35;;;;;;;0.00;0.00;;;17.30;99.90;316.10;52017.00;;;;5071390;28;20212;-71
2022/05/05 11:44:18;;;;;;;0.00;0.00;;;17.50;99.90;316.60;51978.00;;;;5073901;28;20206;-72
2022/05/05 11:46:47;;;;;;;0.10;0.10;;;17.70;99.90;317.00;51943.00;;;;5071710;28;20714;-72